createdAt,value
2023-02-27T00:00:21.585Z,3.70
2023-02-27T00:02:50.986Z,2.90
2023-02-27T00:05:19.325Z,3.33
2023-02-27T00:07:46.396Z,3.28
2023-02-27T00:10:14.240Z,3.67
2023-02-27T00:12:41.563Z,3.05
2023-02-27T00:15:14.653Z,3.55
2023-02-27T00:17:41.813Z,3.15
2023-02-27T00:20:11.859Z,3.30
2023-02-27T00:22:40.126Z,3.58
2023-02-27T00:25:08.181Z,3.13
2023-02-27T00:27:35.733Z,3.20
2023-02-27T00:30:05.018Z,3.65
2023-02-27T00:32:32.624Z,3.95
2023-02-27T00:34:59.736Z,3.30
2023-02-27T00:37:26.728Z,3.15
2023-02-27T00:39:53.679Z,3.55
2023-02-27T00:42:20.685Z,3.63
2023-02-27T00:44:47.667Z,4.63
2023-02-27T00:47:14.703Z,3.58
2023-02-27T00:49:41.697Z,3.50
2023-02-27T00:52:09.756Z,3.20
2023-02-27T00:54:36.681Z,3.88
2023-02-27T00:57:03.816Z,3.05
2023-02-27T00:59:30.710Z,3.80
2023-02-27T01:01:57.729Z,3.05
2023-02-27T01:04:28.320Z,3.67
2023-02-27T01:06:55.250Z,3.13
2023-02-27T01:09:22.317Z,3.53
2023-02-27T01:11:52.841Z,3.65
2023-02-27T01:14:20.024Z,3.65
2023-02-27T01:16:47.083Z,3.08
2023-02-27T01:19:15.902Z,3.75
2023-02-27T01:21:43.678Z,3.40
2023-02-27T01:24:10.947Z,4.22
2023-02-27T01:26:37.909Z,3.30
2023-02-27T01:29:06.507Z,3.17
2023-02-27T01:31:34.088Z,4.43
2023-02-27T01:34:00.961Z,2.88
2023-02-27T01:36:28.061Z,3.50
2023-02-27T01:38:54.939Z,2.92
2023-02-27T01:41:21.810Z,3.30
2023-02-27T01:43:59.291Z,3.38
2023-02-27T01:46:27.132Z,3.45
2023-02-27T01:48:59.799Z,3.70
2023-02-27T01:51:32.011Z,3.50
2023-02-27T01:54:03.994Z,3.47
2023-02-27T01:56:32.195Z,3.75
2023-02-27T01:59:06.381Z,3.40
2023-02-27T02:01:34.728Z,3.08
2023-02-27T02:04:13.348Z,2.92
2023-02-27T02:06:45.185Z,3.50
2023-02-27T02:09:16.202Z,2.97
2023-02-27T02:11:45.040Z,3.47
2023-02-27T02:14:12.551Z,3.58
2023-02-27T02:16:39.909Z,3.67
2023-02-27T02:19:09.720Z,3.30
2023-02-27T02:22:04.766Z,3.75
2023-02-27T02:24:54.560Z,4.57
2023-02-27T02:27:58.897Z,3.58
2023-02-27T02:30:45.261Z,3.50
2023-02-27T02:33:27.180Z,2.80
2023-02-27T02:36:21.024Z,4.63
2023-02-27T02:39:07.600Z,2.87
2023-02-27T02:41:51.824Z,2.65
2023-02-27T02:44:47.260Z,2.95
2023-02-27T02:47:20.275Z,4.00
2023-02-27T02:49:58.166Z,3.03
2023-02-27T02:53:08.264Z,4.25
2023-02-27T02:56:07.351Z,3.50
2023-02-27T02:58:38.583Z,3.47
2023-02-27T03:01:30.749Z,4.32
2023-02-27T03:04:09.087Z,3.53
2023-02-27T03:06:48.411Z,2.70
2023-02-27T03:09:23.884Z,3.28
2023-02-27T03:11:54.099Z,3.20
2023-02-27T03:14:42.953Z,3.13
2023-02-27T03:17:16.961Z,3.75
2023-02-27T03:19:56.596Z,2.67
2023-02-27T03:22:38.901Z,4.32
2023-02-27T03:25:09.728Z,2.90
2023-02-27T03:27:50.062Z,3.75
2023-02-27T03:30:24.356Z,3.17
2023-02-27T03:32:54.266Z,3.88
2023-02-27T03:35:21.480Z,3.40
2023-02-27T03:38:11.949Z,4.63
2023-02-27T03:40:53.570Z,3.97
2023-02-27T03:43:45.078Z,3.50
2023-02-27T03:46:27.882Z,3.42
2023-02-27T03:48:55.197Z,3.45
2023-02-27T03:51:24.671Z,3.70
2023-02-27T03:54:22.822Z,3.10
2023-02-27T03:57:05.343Z,3.35
2023-02-27T03:59:33.708Z,3.47
2023-02-27T04:02:03.185Z,4.00
2023-02-27T04:04:32.958Z,2.75
2023-02-27T04:07:34.087Z,3.58
2023-02-27T04:10:04.324Z,3.55
2023-02-27T04:12:56.183Z,3.10
2023-02-27T04:15:50.107Z,3.53
2023-02-27T04:18:35.050Z,4.55
2023-02-27T04:21:33.911Z,6.53
2023-02-27T04:24:03.518Z,3.83
2023-02-27T04:26:32.062Z,3.53
2023-02-27T04:29:04.698Z,3.22
2023-02-27T04:31:47.884Z,3.42
2023-02-27T04:34:21.086Z,3.28
2023-02-27T04:36:54.364Z,4.13
2023-02-27T04:40:02.795Z,3.28
2023-02-27T04:42:33.356Z,3.15
2023-02-27T04:45:05.673Z,3.25
2023-02-27T04:47:43.706Z,2.50
2023-02-27T04:50:31.566Z,3.80
2023-02-27T04:53:05.721Z,3.08
2023-02-27T04:55:43.650Z,3.70
2023-02-27T04:58:29.677Z,2.83
2023-02-27T05:01:08.905Z,5.43
2023-02-27T05:03:41.385Z,3.45
2023-02-27T05:06:10.595Z,3.88
2023-02-27T05:09:01.350Z,3.80
2023-02-27T05:11:53.581Z,3.45
2023-02-27T05:14:31.912Z,3.53
2023-02-27T05:17:11.931Z,3.13
2023-02-27T05:19:41.789Z,3.53
2023-02-27T05:22:27.269Z,3.67
2023-02-27T05:27:30.266Z,3.88
2023-02-27T05:30:04.912Z,3.42
2023-02-27T05:32:48.538Z,4.03
2023-02-27T05:35:43.124Z,3.25
2023-02-27T05:38:22.025Z,3.60
2023-02-27T05:40:53.972Z,3.25
2023-02-27T05:43:27.630Z,4.43
2023-02-27T05:46:01.487Z,3.25
2023-02-27T05:48:35.801Z,3.50
2023-02-27T05:51:05.335Z,3.80
2023-02-27T05:53:37.259Z,3.60
2023-02-27T05:56:07.054Z,4.22
2023-02-27T05:58:45.941Z,3.85
2023-02-27T06:01:12.997Z,3.33
2023-02-27T06:03:41.721Z,4.50
2023-02-27T06:06:14.038Z,4.20
2023-02-27T06:08:41.097Z,3.47
2023-02-27T06:11:08.069Z,3.50
2023-02-27T06:13:36.367Z,3.10
2023-02-27T06:16:03.354Z,3.30
2023-02-27T06:18:30.252Z,4.15
2023-02-27T06:20:57.618Z,3.90
2023-02-27T06:23:24.543Z,3.53
2023-02-27T06:25:51.469Z,4.15
2023-02-27T06:28:18.362Z,3.92
2023-02-27T06:30:46.450Z,6.03
2023-02-27T06:33:13.870Z,4.72
2023-02-27T06:35:40.833Z,5.47
2023-02-27T06:38:07.759Z,7.40
2023-02-27T06:40:34.601Z,4.05
2023-02-27T06:43:01.617Z,6.03
2023-02-27T06:45:28.522Z,3.75
2023-02-27T06:47:55.419Z,6.03
2023-02-27T06:50:22.338Z,3.25
2023-02-27T06:52:49.255Z,4.97
2023-02-27T06:55:20.538Z,3.50
2023-02-27T06:57:47.840Z,4.78
2023-02-27T07:00:15.871Z,4.28
2023-02-27T07:02:42.769Z,4.18
2023-02-27T07:05:11.823Z,3.90
2023-02-27T07:07:39.327Z,3.83
2023-02-27T07:10:11.713Z,3.42
2023-02-27T07:12:39.975Z,3.53
2023-02-27T07:15:08.627Z,4.60
2023-02-27T07:17:36.688Z,4.13
2023-02-27T07:20:06.693Z,4.00
2023-02-27T07:22:33.755Z,3.67
2023-02-27T07:25:00.620Z,4.70
2023-02-27T07:27:27.533Z,3.75
2023-02-27T07:29:54.470Z,4.70
2023-02-27T07:32:21.643Z,3.90
2023-02-27T07:34:48.680Z,5.13
2023-02-27T07:37:15.733Z,6.05
2023-02-27T07:39:42.644Z,6.30
2023-02-27T07:42:09.499Z,4.88
2023-02-27T07:44:36.644Z,5.05
2023-02-27T07:47:03.886Z,4.05
2023-02-27T07:49:30.760Z,4.85
2023-02-27T07:51:57.655Z,4.72
2023-02-27T07:54:24.585Z,4.68
2023-02-27T07:56:51.484Z,5.70
2023-02-27T07:59:18.402Z,8.35
2023-02-27T08:01:45.341Z,6.88
2023-02-27T08:04:12.257Z,7.43
2023-02-27T08:06:40.110Z,6.50
2023-02-27T08:09:06.989Z,6.50
2023-02-27T08:11:33.925Z,5.45
2023-02-27T08:14:02.012Z,6.03
2023-02-27T08:16:30.868Z,5.72
2023-02-27T08:18:58.331Z,5.75
2023-02-27T08:21:25.661Z,4.85
2023-02-27T08:23:52.845Z,5.38
2023-02-27T08:26:19.718Z,6.10
2023-02-27T08:28:46.613Z,4.53
2023-02-27T08:31:13.832Z,7.05
2023-02-27T08:33:40.925Z,5.60
2023-02-27T08:36:08.379Z,5.90
2023-02-27T08:38:35.338Z,4.22
2023-02-27T08:41:03.608Z,4.70
2023-02-27T08:43:30.537Z,6.55
2023-02-27T08:45:57.517Z,4.15
2023-02-27T08:48:25.045Z,5.32
2023-02-27T08:50:52.492Z,4.15
2023-02-27T08:53:19.408Z,4.53
2023-02-27T08:55:50.620Z,4.35
2023-02-27T08:58:18.656Z,4.95
2023-02-27T09:00:46.588Z,6.03
2023-02-27T09:03:13.930Z,2.75
2023-02-27T09:05:42.104Z,4.15
2023-02-27T09:08:09.677Z,1.83
2023-02-27T09:10:36.835Z,2.78
2023-02-27T09:13:03.821Z,2.10
2023-02-27T09:15:32.666Z,2.70
2023-02-27T09:18:03.224Z,2.50
2023-02-27T09:20:31.890Z,1.65
2023-02-27T09:22:59.976Z,2.28
2023-02-27T09:25:27.394Z,2.42
2023-02-27T09:27:54.960Z,2.03
2023-02-27T09:30:22.631Z,2.20
2023-02-27T09:32:50.224Z,2.35
2023-02-27T09:35:17.506Z,2.17
2023-02-27T09:37:44.575Z,1.77
2023-02-27T09:40:19.973Z,1.98
2023-02-27T09:42:48.803Z,2.47
2023-02-27T09:45:24.290Z,2.10
2023-02-27T09:48:00.759Z,1.52
2023-02-27T09:50:37.946Z,2.15
2023-02-27T09:53:10.345Z,3.13
2023-02-27T09:55:40.661Z,2.53
2023-02-27T09:58:25.801Z,2.45
2023-02-27T10:00:52.688Z,4.22
2023-02-27T10:03:22.301Z,2.70
2023-02-27T10:06:16.733Z,3.15
2023-02-27T10:09:01.154Z,2.90
2023-02-27T10:11:52.893Z,2.90
2023-02-27T10:14:51.039Z,2.75
2023-02-27T10:17:31.879Z,2.65
2023-02-27T10:20:02.678Z,3.33
2023-02-27T10:22:37.903Z,3.15
2023-02-27T10:25:28.707Z,2.78
2023-02-27T10:28:09.341Z,3.00
2023-02-27T10:30:36.761Z,3.17
2023-02-27T10:33:28.307Z,3.00
2023-02-27T10:35:55.645Z,2.50
2023-02-27T10:38:32.104Z,2.20
2023-02-27T10:41:00.493Z,2.38
2023-02-27T10:43:27.556Z,3.28
2023-02-27T10:45:54.780Z,2.50
2023-02-27T10:48:23.230Z,2.40
2023-02-27T10:50:53.609Z,2.28
2023-02-27T10:53:26.147Z,3.10
2023-02-27T10:56:03.195Z,2.60
2023-02-27T10:58:34.858Z,2.15
2023-02-27T11:01:08.372Z,2.40
2023-02-27T11:03:44.246Z,3.10
2023-02-27T11:06:24.748Z,3.25
2023-02-27T11:09:23.637Z,2.45
2023-02-27T11:11:51.515Z,2.35
2023-02-27T11:14:29.421Z,2.45
2023-02-27T11:16:59.396Z,2.50
2023-02-27T11:19:37.770Z,2.95
2023-02-27T11:22:15.927Z,2.20
2023-02-27T11:24:43.413Z,2.00
2023-02-27T11:27:29.304Z,2.65
2023-02-27T11:30:04.859Z,2.10
2023-02-27T11:32:45.419Z,3.00
2023-02-27T11:35:31.681Z,2.17
2023-02-27T11:38:16.893Z,2.50
2023-02-27T11:40:52.218Z,2.75
2023-02-27T11:43:31.215Z,2.85
2023-02-27T11:46:11.378Z,2.40
2023-02-27T11:49:01.461Z,2.00
2023-02-27T11:51:31.133Z,3.30
2023-02-27T11:54:07.494Z,2.50
2023-02-27T11:56:39.077Z,2.58
2023-02-27T11:59:22.124Z,2.50
2023-02-27T12:01:48.964Z,3.20
2023-02-27T12:04:29.757Z,3.22
2023-02-27T12:07:06.280Z,3.05
2023-02-27T12:09:39.959Z,2.80
2023-02-27T12:12:28.413Z,2.53
2023-02-27T12:15:13.359Z,2.97
2023-02-27T12:17:52.446Z,3.00
2023-02-27T12:20:28.033Z,3.28
2023-02-27T12:22:56.013Z,3.13
2023-02-27T12:25:46.526Z,2.78
2023-02-27T12:28:23.950Z,2.78
2023-02-27T12:31:14.090Z,2.50
2023-02-27T12:33:48.681Z,3.05
2023-02-27T12:36:15.934Z,2.63
2023-02-27T12:38:42.962Z,2.83
2023-02-27T12:41:54.608Z,2.80
2023-02-27T12:44:58.894Z,3.25
2023-02-27T12:47:55.002Z,3.30
2023-02-27T12:50:24.599Z,3.28
2023-02-27T12:53:23.731Z,2.30
2023-02-27T12:55:58.090Z,2.38
2023-02-27T12:58:54.612Z,2.97
2023-02-27T13:01:39.543Z,2.78
2023-02-27T13:04:26.438Z,3.38
2023-02-27T13:07:09.642Z,2.70
2023-02-27T13:09:47.774Z,2.58
2023-02-27T13:12:33.718Z,2.50
2023-02-27T13:15:06.377Z,2.33
2023-02-27T13:17:49.535Z,2.35
2023-02-27T13:20:22.377Z,2.30
2023-02-27T13:23:01.078Z,3.53
2023-02-27T13:25:30.350Z,2.75
2023-02-27T13:28:08.337Z,2.50
2023-02-27T13:31:00.962Z,3.35
2023-02-27T13:33:41.929Z,3.28
2023-02-27T13:36:30.271Z,2.90
2023-02-27T13:38:57.687Z,2.60
2023-02-27T13:41:24.483Z,2.85
2023-02-27T13:43:53.980Z,3.38
2023-02-27T13:46:29.020Z,3.08
2023-02-27T13:51:59.521Z,3.38
2023-02-27T13:54:33.551Z,2.63
2023-02-27T13:57:26.358Z,3.67
2023-02-27T13:59:56.632Z,3.20
2023-02-27T14:02:34.843Z,3.17
2023-02-27T14:05:06.279Z,3.50
2023-02-27T14:07:55.355Z,3.33
2023-02-27T14:10:29.118Z,3.80
2023-02-27T14:12:57.797Z,3.20
2023-02-27T14:15:24.608Z,3.25
2023-02-27T14:18:11.421Z,3.50
2023-02-27T14:20:40.912Z,3.75
2023-02-27T14:23:25.943Z,3.85
2023-02-27T14:26:14.263Z,3.75
2023-02-27T14:28:51.811Z,3.90
2023-02-27T14:31:30.896Z,4.15
2023-02-27T14:34:05.241Z,4.28
2023-02-27T14:36:39.685Z,3.93
2023-02-27T14:39:06.763Z,4.38
2023-02-27T14:41:51.653Z,3.63
2023-02-27T14:44:20.222Z,4.03
2023-02-27T14:46:47.166Z,4.05
2023-02-27T14:49:17.054Z,4.85
2023-02-27T14:51:44.223Z,5.32
2023-02-27T14:54:16.988Z,5.18
2023-02-27T14:57:18.092Z,4.65
2023-02-27T14:59:53.065Z,5.00
2023-02-27T15:02:36.216Z,5.57
2023-02-27T15:05:03.427Z,5.65
2023-02-27T15:07:33.925Z,4.97
2023-02-27T15:10:04.528Z,5.80
2023-02-27T15:12:37.241Z,4.95
2023-02-27T15:15:06.323Z,5.75
2023-02-27T15:17:46.268Z,6.93
2023-02-27T15:20:34.625Z,6.93
2023-02-27T15:23:20.051Z,7.47
2023-02-27T15:25:47.063Z,7.63
2023-02-27T15:28:22.329Z,7.30
2023-02-27T15:33:26.552Z,8.23
2023-02-27T15:35:53.730Z,8.60
2023-02-27T15:38:32.577Z,8.68
2023-02-27T15:41:02.116Z,9.55
2023-02-27T15:43:30.028Z,9.35
2023-02-27T15:45:58.449Z,11.23
2023-02-27T15:48:26.167Z,10.00
2023-02-27T15:51:04.419Z,10.18
2023-02-27T15:53:34.113Z,9.65
2023-02-27T15:56:06.187Z,10.45
2023-02-27T15:58:38.952Z,10.50
2023-02-27T16:01:11.632Z,11.63
2023-02-27T16:03:44.103Z,11.45
2023-02-27T16:06:20.498Z,10.82
2023-02-27T16:09:00.417Z,11.60
2023-02-27T16:11:33.385Z,11.80
2023-02-27T16:14:00.853Z,12.38
2023-02-27T16:16:37.572Z,12.48
2023-02-27T16:19:27.997Z,12.65
2023-02-27T16:22:27.697Z,11.73
2023-02-27T16:24:56.225Z,12.43
2023-02-27T16:27:29.630Z,12.60
2023-02-27T16:30:02.982Z,12.30
2023-02-27T16:32:39.449Z,12.32
2023-02-27T16:35:15.547Z,12.82
2023-02-27T16:37:43.577Z,13.55
2023-02-27T16:40:17.486Z,15.23
2023-02-27T16:42:45.528Z,15.88
2023-02-27T16:45:20.143Z,15.50
2023-02-27T16:47:56.379Z,13.05
2023-02-27T16:50:34.087Z,12.02
2023-02-27T16:53:01.142Z,11.38
2023-02-27T16:55:28.352Z,11.98
2023-02-27T16:57:56.060Z,11.77
2023-02-27T17:00:23.320Z,13.40
2023-02-27T17:02:51.273Z,12.65
2023-02-27T17:05:19.484Z,12.40
2023-02-27T17:07:46.705Z,11.48
2023-02-27T17:10:19.255Z,11.05
2023-02-27T17:12:48.007Z,11.38
2023-02-27T17:15:16.113Z,11.35
2023-02-27T17:17:43.906Z,11.55
2023-02-27T17:20:13.974Z,12.15
2023-02-27T17:22:44.988Z,11.70
2023-02-27T17:25:14.182Z,11.07
2023-02-27T17:27:43.798Z,10.85
2023-02-27T17:30:11.469Z,11.60
2023-02-27T17:32:38.462Z,11.50
2023-02-27T17:35:05.755Z,12.02
2023-02-27T17:37:32.645Z,12.30
2023-02-27T17:39:59.632Z,11.05
2023-02-27T17:42:26.625Z,12.52
2023-02-27T17:44:53.556Z,12.82
2023-02-27T17:47:20.548Z,13.27
2023-02-27T17:49:47.608Z,12.48
2023-02-27T17:52:14.646Z,12.63
2023-02-27T17:54:41.588Z,13.65
2023-02-27T17:57:10.494Z,13.07
2023-02-27T17:59:37.625Z,12.68
2023-02-27T18:02:04.658Z,13.30
2023-02-27T18:04:31.616Z,12.82
2023-02-27T18:06:58.896Z,13.70
2023-02-27T18:09:25.835Z,14.85
2023-02-27T18:11:52.775Z,13.13
2023-02-27T18:14:19.645Z,14.63
2023-02-27T18:16:46.834Z,14.18
2023-02-27T18:19:14.636Z,14.48
2023-02-27T18:21:42.930Z,15.05
2023-02-27T18:24:10.246Z,14.38
2023-02-27T18:26:37.778Z,14.00
2023-02-27T18:29:10.514Z,14.40
2023-02-27T18:31:43.395Z,14.43
2023-02-27T18:34:12.028Z,14.82
2023-02-27T18:36:39.088Z,14.85
2023-02-27T18:39:06.564Z,14.55
2023-02-27T18:41:34.633Z,14.07
2023-02-27T18:44:01.624Z,14.20
2023-02-27T18:46:29.561Z,14.05
2023-02-27T18:48:56.967Z,14.38
2023-02-27T18:51:24.830Z,13.55
2023-02-27T18:53:53.096Z,12.30
2023-02-27T18:56:23.255Z,13.00
2023-02-27T18:58:51.370Z,12.25
2023-02-27T19:01:23.867Z,12.95
2023-02-27T19:03:51.694Z,12.57
2023-02-27T19:06:18.619Z,13.18
2023-02-27T19:08:46.422Z,12.43
2023-02-27T19:11:33.753Z,12.88
2023-02-27T19:14:02.572Z,12.25
2023-02-27T19:16:30.032Z,12.52
2023-02-27T19:18:58.728Z,11.00
2023-02-27T19:21:26.796Z,11.35
2023-02-27T19:23:54.240Z,11.07
2023-02-27T19:26:21.788Z,11.18
2023-02-27T19:28:54.082Z,10.95
2023-02-27T19:31:23.621Z,11.95
2023-02-27T19:33:50.968Z,11.68
2023-02-27T19:36:21.053Z,11.45
2023-02-27T19:38:48.666Z,11.20
2023-02-27T19:41:17.027Z,11.60
2023-02-27T19:43:44.423Z,10.73
2023-02-27T19:46:14.276Z,10.55
2023-02-27T19:48:41.504Z,10.77
2023-02-27T19:51:11.231Z,10.90
2023-02-27T19:53:39.801Z,10.13
2023-02-27T19:56:09.159Z,11.45
2023-02-27T19:58:36.647Z,10.68
2023-02-27T20:01:04.996Z,10.95
2023-02-27T20:03:33.504Z,11.90
2023-02-27T20:06:00.435Z,10.55
2023-02-27T20:08:27.386Z,10.65
2023-02-27T20:10:58.716Z,9.77
2023-02-27T20:13:26.858Z,10.25
2023-02-27T20:16:03.257Z,9.77
2023-02-27T20:18:31.239Z,11.45
2023-02-27T20:21:01.956Z,10.80
2023-02-27T20:23:30.038Z,10.45
2023-02-27T20:25:57.055Z,10.15
2023-02-27T20:28:23.975Z,9.80
2023-02-27T20:30:50.836Z,9.27
2023-02-27T20:33:17.717Z,9.88
2023-02-27T20:35:44.797Z,9.65
2023-02-27T20:38:11.804Z,10.18
2023-02-27T20:40:38.810Z,10.98
2023-02-27T20:43:05.683Z,7.40
2023-02-27T20:45:32.551Z,7.65
2023-02-27T20:47:59.414Z,7.65
2023-02-27T20:50:26.305Z,6.90
2023-02-27T20:52:54.629Z,7.00
2023-02-27T20:55:22.697Z,5.78
2023-02-27T20:57:49.554Z,5.68
2023-02-27T21:00:16.741Z,5.78
2023-02-27T21:02:44.681Z,5.45
2023-02-27T21:05:11.599Z,5.45
2023-02-27T21:07:38.519Z,6.00
2023-02-27T21:10:05.870Z,6.03
2023-02-27T21:12:34.124Z,4.35
2023-02-27T21:15:01.026Z,5.38
2023-02-27T21:17:27.967Z,5.28
2023-02-27T21:19:54.900Z,5.05
2023-02-27T21:22:21.983Z,4.78
2023-02-27T21:24:52.014Z,4.10
2023-02-27T21:27:21.396Z,5.47
2023-02-27T21:29:49.082Z,4.97
2023-02-27T21:32:16.054Z,4.50
2023-02-27T21:34:42.980Z,3.92
2023-02-27T21:37:12.454Z,4.32
2023-02-27T21:39:40.468Z,3.90
2023-02-27T21:42:07.652Z,3.53
2023-02-27T21:44:34.550Z,3.70
2023-02-27T21:47:10.016Z,3.30
2023-02-27T21:49:37.385Z,3.38
2023-02-27T21:52:04.475Z,3.63
2023-02-27T21:54:31.544Z,3.65
2023-02-27T21:57:01.870Z,3.63
2023-02-27T21:59:29.605Z,3.85
2023-02-27T22:01:57.954Z,3.85
2023-02-27T22:04:25.436Z,3.75
2023-02-27T22:06:52.789Z,3.70
2023-02-27T22:09:20.415Z,3.30
2023-02-27T22:11:48.112Z,4.07
2023-02-27T22:14:15.300Z,3.20
2023-02-27T22:16:42.679Z,3.90
2023-02-27T22:19:12.922Z,4.32
2023-02-27T22:21:40.851Z,3.50
2023-02-27T22:24:08.061Z,3.67
2023-02-27T22:26:35.895Z,4.07
2023-02-27T22:29:03.901Z,3.88
2023-02-27T22:31:34.468Z,3.95
2023-02-27T22:34:05.955Z,3.97
2023-02-27T22:36:34.329Z,3.47
2023-02-27T22:39:02.041Z,4.25
2023-02-27T22:41:34.590Z,3.58
2023-02-27T22:44:02.281Z,3.40
2023-02-27T22:46:34.967Z,3.40
2023-02-27T22:49:08.461Z,3.25
2023-02-27T22:51:35.586Z,3.38
2023-02-27T22:54:04.159Z,4.00
2023-02-27T22:56:31.819Z,3.50
2023-02-27T22:58:58.858Z,3.17
2023-02-27T23:01:31.589Z,3.47
2023-02-27T23:04:01.088Z,4.00
2023-02-27T23:06:31.084Z,3.60
2023-02-27T23:08:58.434Z,3.92
2023-02-27T23:11:25.456Z,4.20
2023-02-27T23:13:52.704Z,4.05
2023-02-27T23:16:20.331Z,4.30
2023-02-27T23:18:50.313Z,3.60
2023-02-27T23:21:20.306Z,3.47
2023-02-27T23:23:47.931Z,3.42
2023-02-27T23:26:15.293Z,3.50
2023-02-27T23:28:42.926Z,3.92
2023-02-27T23:31:10.081Z,3.40
2023-02-27T23:33:37.062Z,4.03
2023-02-27T23:36:04.503Z,3.30
2023-02-27T23:38:31.436Z,3.65
2023-02-27T23:40:58.599Z,3.42
2023-02-27T23:43:43.983Z,4.00
2023-02-27T23:46:16.450Z,3.50
2023-02-27T23:48:43.705Z,3.17
2023-02-27T23:51:11.642Z,3.30
2023-02-27T23:53:40.432Z,3.55
2023-02-27T23:56:20.378Z,3.50
2023-02-27T23:58:49.039Z,3.72
